createdAt,value
2022-09-15T00:01:06.122Z,0.68
2022-09-15T00:03:33.040Z,0.90
2022-09-15T00:05:59.969Z,0.90
2022-09-15T00:08:27.426Z,0.90
2022-09-15T00:11:19.607Z,0.80
2022-09-15T00:13:47.215Z,0.98
2022-09-15T00:16:15.538Z,0.80
2022-09-15T00:18:44.182Z,1.05
2022-09-15T00:21:14.458Z,0.90
2022-09-15T00:23:41.436Z,0.80
2022-09-15T00:26:10.235Z,0.70
2022-09-15T00:28:37.584Z,0.98
2022-09-15T00:31:07.547Z,1.05
2022-09-15T00:33:34.645Z,1.00
2022-09-15T00:36:04.305Z,0.70
2022-09-15T00:38:32.838Z,0.90
2022-09-15T00:41:00.855Z,1.02
2022-09-15T00:43:42.638Z,0.88
2022-09-15T00:46:10.055Z,0.90
2022-09-15T00:48:40.853Z,0.98
2022-09-15T00:51:09.848Z,0.70
2022-09-15T00:53:37.539Z,1.17
2022-09-15T00:56:06.512Z,0.90
2022-09-15T00:58:40.789Z,0.82
2022-09-15T01:01:08.629Z,0.95
2022-09-15T01:03:36.716Z,0.70
2022-09-15T01:06:15.766Z,1.00
2022-09-15T01:08:58.081Z,1.02
2022-09-15T01:11:24.908Z,1.05
2022-09-15T01:13:51.817Z,0.90
2022-09-15T01:16:30.021Z,0.80
2022-09-15T01:19:03.793Z,0.93
2022-09-15T01:21:37.605Z,0.98
2022-09-15T01:24:42.034Z,0.70
2022-09-15T01:27:42.090Z,1.08
2022-09-15T01:30:12.804Z,1.02
2022-09-15T01:33:06.893Z,0.70
2022-09-15T01:35:37.137Z,0.80
2022-09-15T01:38:16.936Z,0.80
2022-09-15T01:41:02.660Z,0.90
2022-09-15T01:45:59.149Z,0.60
2022-09-15T01:48:28.278Z,0.80
2022-09-15T01:51:02.128Z,0.80
2022-09-15T01:53:29.580Z,1.08
2022-09-15T01:56:11.268Z,0.98
2022-09-15T01:58:42.135Z,0.80
2022-09-15T02:01:33.647Z,0.82
2022-09-15T02:04:19.594Z,0.90
2022-09-15T02:06:56.663Z,0.60
2022-09-15T02:09:30.337Z,0.82
2022-09-15T02:12:19.472Z,0.90
2022-09-15T02:14:56.731Z,0.93
2022-09-15T02:17:29.125Z,1.00
2022-09-15T02:20:33.282Z,1.05
2022-09-15T02:23:08.450Z,0.68
2022-09-15T02:25:41.712Z,0.95
2022-09-15T02:28:11.619Z,0.90
2022-09-15T02:30:41.934Z,0.73
2022-09-15T02:33:14.174Z,0.80
2022-09-15T02:35:41.993Z,0.70
2022-09-15T02:38:10.701Z,0.80
2022-09-15T02:40:41.268Z,0.73
2022-09-15T02:43:12.116Z,0.90
2022-09-15T02:45:39.681Z,0.90
2022-09-15T02:48:08.178Z,0.90
2022-09-15T02:50:35.822Z,0.90
2022-09-15T02:53:02.918Z,0.70
2022-09-15T02:55:29.994Z,1.10
2022-09-15T02:57:57.800Z,0.80
2022-09-15T03:00:26.052Z,0.73
2022-09-15T03:02:54.443Z,0.80
2022-09-15T03:05:24.170Z,0.75
2022-09-15T03:07:52.118Z,1.10
2022-09-15T03:10:19.373Z,1.20
2022-09-15T03:12:49.373Z,0.80
2022-09-15T03:15:19.019Z,1.10
2022-09-15T03:17:47.022Z,0.90
2022-09-15T03:20:20.385Z,0.82
2022-09-15T03:22:47.869Z,0.80
2022-09-15T03:25:15.040Z,1.00
2022-09-15T03:27:42.959Z,0.80
2022-09-15T03:30:10.862Z,0.90
2022-09-15T03:32:37.824Z,0.90
2022-09-15T03:35:08.176Z,0.80
2022-09-15T03:37:35.418Z,0.90
2022-09-15T03:40:03.863Z,0.70
2022-09-15T03:42:31.037Z,1.00
2022-09-15T03:44:57.950Z,0.70
2022-09-15T03:47:24.750Z,0.90
2022-09-15T03:49:51.595Z,0.77
2022-09-15T03:52:18.394Z,0.70
2022-09-15T03:54:45.185Z,0.80
2022-09-15T03:57:11.941Z,0.80
2022-09-15T03:59:38.801Z,0.80
2022-09-15T04:02:05.637Z,0.90
2022-09-15T04:04:32.476Z,0.80
2022-09-15T04:06:59.353Z,0.70
2022-09-15T04:09:26.344Z,0.90
2022-09-15T04:11:53.126Z,0.70
2022-09-15T04:14:19.923Z,0.75
2022-09-15T04:16:47.932Z,0.90
2022-09-15T04:19:14.903Z,0.73
2022-09-15T04:21:41.778Z,0.88
2022-09-15T04:24:08.630Z,1.00
2022-09-15T04:26:37.127Z,0.60
2022-09-15T04:29:06.104Z,0.82
2022-09-15T04:31:34.269Z,0.90
2022-09-15T04:34:01.222Z,0.80
2022-09-15T04:36:28.797Z,0.70
2022-09-15T04:38:56.569Z,0.80
2022-09-15T04:41:24.365Z,0.70
2022-09-15T04:43:51.704Z,0.57
2022-09-15T04:46:18.907Z,0.80
2022-09-15T04:48:46.574Z,0.90
2022-09-15T04:51:15.911Z,0.82
2022-09-15T04:53:43.086Z,0.68
2022-09-15T04:56:13.186Z,1.08
2022-09-15T04:59:03.993Z,0.85
2022-09-15T05:01:34.030Z,0.70
2022-09-15T05:04:05.009Z,0.70
2022-09-15T05:06:32.778Z,0.80
2022-09-15T05:08:59.642Z,0.70
2022-09-15T05:11:27.013Z,0.90
2022-09-15T05:13:54.629Z,0.70
2022-09-15T05:16:24.231Z,0.93
2022-09-15T05:18:52.842Z,0.93
2022-09-15T05:21:22.272Z,0.82
2022-09-15T05:23:50.325Z,0.90
2022-09-15T05:26:19.809Z,0.80
2022-09-15T05:28:46.852Z,0.77
2022-09-15T05:31:21.611Z,0.80
2022-09-15T05:33:49.821Z,0.88
2022-09-15T05:36:18.547Z,0.90
2022-09-15T05:38:45.446Z,0.75
2022-09-15T05:41:17.546Z,1.00
2022-09-15T05:43:46.112Z,0.85
2022-09-15T05:46:14.201Z,0.98
2022-09-15T05:48:41.105Z,0.80
2022-09-15T05:51:08.053Z,0.80
2022-09-15T05:53:35.805Z,0.98
2022-09-15T05:56:06.748Z,0.77
2022-09-15T05:58:34.343Z,0.88
2022-09-15T06:01:07.931Z,1.00
2022-09-15T06:03:35.484Z,0.90
2022-09-15T06:06:04.095Z,0.90
2022-09-15T06:08:33.128Z,1.20
2022-09-15T06:11:08.892Z,0.80
2022-09-15T06:13:35.800Z,0.70
2022-09-15T06:16:05.263Z,0.82
2022-09-15T06:18:33.756Z,1.17
2022-09-15T06:21:09.437Z,0.80
2022-09-15T06:23:37.072Z,1.00
2022-09-15T06:26:09.445Z,0.90
2022-09-15T06:28:36.548Z,1.00
2022-09-15T06:31:04.201Z,0.80
2022-09-15T06:33:31.196Z,0.95
2022-09-15T06:36:00.960Z,1.00
2022-09-15T06:38:27.954Z,1.08
2022-09-15T06:40:56.426Z,1.05
2022-09-15T06:43:23.488Z,0.80
2022-09-15T06:45:50.504Z,0.90
2022-09-15T06:48:24.914Z,0.68
2022-09-15T06:50:55.891Z,0.60
2022-09-15T06:53:22.846Z,0.90
2022-09-15T06:55:50.087Z,0.98
2022-09-15T06:58:17.137Z,0.80
2022-09-15T07:00:44.155Z,0.80
2022-09-15T07:03:11.129Z,0.85
2022-09-15T07:05:38.081Z,0.73
2022-09-15T07:08:04.889Z,0.80
2022-09-15T07:10:32.042Z,0.70
2022-09-15T07:13:01.229Z,0.90
2022-09-15T07:15:28.083Z,0.90
2022-09-15T07:17:54.955Z,0.70
2022-09-15T07:20:21.711Z,0.70
2022-09-15T07:22:48.595Z,0.80
2022-09-15T07:25:15.471Z,0.65
2022-09-15T07:27:42.400Z,0.65
2022-09-15T07:30:10.181Z,0.60
2022-09-15T07:32:37.269Z,0.50
2022-09-15T07:35:04.298Z,0.80
2022-09-15T07:37:32.444Z,0.85
2022-09-15T07:39:59.808Z,0.65
2022-09-15T07:42:26.637Z,0.70
2022-09-15T07:44:53.393Z,0.75
2022-09-15T07:47:20.652Z,0.80
2022-09-15T07:49:47.466Z,0.60
2022-09-15T07:52:14.237Z,0.85
2022-09-15T07:54:41.019Z,0.80
2022-09-15T07:57:07.835Z,0.80
2022-09-15T07:59:37.239Z,0.85
2022-09-15T08:02:17.548Z,0.70
2022-09-15T08:04:44.509Z,0.70
2022-09-15T08:07:12.083Z,0.82
2022-09-15T08:09:40.271Z,0.80
2022-09-15T08:12:07.873Z,0.70
2022-09-15T08:14:34.951Z,0.80
2022-09-15T08:17:08.153Z,0.80
2022-09-15T08:19:37.841Z,0.82
2022-09-15T08:22:05.107Z,0.93
2022-09-15T08:24:31.944Z,0.85
2022-09-15T08:26:58.708Z,0.85
2022-09-15T08:29:25.880Z,0.68
2022-09-15T08:31:52.691Z,0.90
2022-09-15T08:34:20.445Z,1.02
2022-09-15T08:36:47.374Z,0.77
2022-09-15T08:39:14.152Z,1.30
2022-09-15T08:41:46.546Z,1.08
2022-09-15T08:44:28.295Z,0.90
2022-09-15T08:47:18.766Z,1.42
2022-09-15T08:50:12.609Z,1.02
2022-09-15T08:52:48.881Z,0.95
2022-09-15T08:55:31.224Z,0.95
2022-09-15T08:57:58.037Z,1.00
2022-09-15T09:00:25.010Z,0.90
2022-09-15T09:03:22.507Z,0.80
2022-09-15T09:06:15.227Z,0.80
2022-09-15T09:08:57.089Z,0.85
2022-09-15T09:11:39.169Z,0.77
2022-09-15T09:14:11.951Z,0.75
2022-09-15T09:17:01.479Z,0.73
2022-09-15T09:19:57.784Z,0.80
2022-09-15T09:22:28.608Z,0.60
2022-09-15T09:24:57.970Z,0.80
2022-09-15T09:27:28.803Z,0.70
2022-09-15T09:30:16.407Z,0.60
2022-09-15T09:33:06.498Z,0.90
2022-09-15T09:35:49.439Z,0.70
2022-09-15T09:38:36.527Z,0.75
2022-09-15T09:41:16.860Z,0.80
2022-09-15T09:43:46.282Z,1.00
2022-09-15T09:46:16.421Z,0.77
2022-09-15T09:48:56.366Z,0.90
2022-09-15T09:51:31.165Z,1.00
2022-09-15T09:54:06.220Z,0.70
2022-09-15T09:56:33.485Z,0.82
2022-09-15T09:59:02.920Z,0.73
2022-09-15T10:01:30.330Z,0.50
2022-09-15T10:04:18.868Z,0.50
2022-09-15T10:06:46.420Z,0.73
2022-09-15T10:09:18.260Z,0.70
2022-09-15T10:11:51.524Z,0.80
2022-09-15T10:14:40.002Z,0.90
2022-09-15T10:17:15.520Z,0.70
2022-09-15T10:19:54.296Z,0.80
2022-09-15T10:22:27.187Z,0.80
2022-09-15T10:24:54.365Z,0.93
2022-09-15T10:27:27.273Z,0.63
2022-09-15T10:29:55.588Z,0.73
2022-09-15T10:32:25.891Z,0.50
2022-09-15T10:35:00.473Z,0.63
2022-09-15T10:38:07.672Z,0.70
2022-09-15T10:43:37.610Z,0.60
2022-09-15T10:46:18.208Z,0.70
2022-09-15T10:49:06.372Z,0.70
2022-09-15T10:51:35.965Z,0.47
2022-09-15T10:54:24.399Z,0.60
2022-09-15T10:56:58.685Z,0.63
2022-09-15T10:59:34.518Z,0.50
2022-09-15T11:02:33.749Z,0.70
2022-09-15T11:05:22.562Z,0.60
2022-09-15T11:08:14.143Z,0.68
2022-09-15T11:10:50.407Z,0.60
2022-09-15T11:13:23.310Z,0.77
2022-09-15T11:16:25.597Z,0.77
2022-09-15T11:19:33.027Z,0.60
2022-09-15T11:22:31.928Z,0.50
2022-09-15T11:25:12.468Z,0.40
2022-09-15T11:27:45.021Z,0.50
2022-09-15T11:30:21.590Z,0.50
2022-09-15T11:33:02.156Z,0.50
2022-09-15T11:35:50.149Z,0.65
2022-09-15T11:38:48.822Z,0.60
2022-09-15T11:41:36.327Z,0.60
2022-09-15T11:44:18.189Z,0.47
2022-09-15T11:47:26.996Z,0.60
2022-09-15T11:50:06.888Z,0.63
2022-09-15T11:53:01.426Z,0.80
2022-09-15T11:56:09.565Z,0.40
2022-09-15T11:59:18.682Z,0.60
2022-09-15T12:02:03.473Z,0.60
2022-09-15T12:04:39.024Z,0.68
2022-09-15T12:07:15.654Z,0.60
2022-09-15T12:09:57.689Z,0.63
2022-09-15T12:12:30.638Z,0.63
2022-09-15T12:15:02.777Z,0.60
2022-09-15T12:17:53.266Z,0.50
2022-09-15T12:20:39.239Z,0.47
2022-09-15T12:23:15.404Z,0.60
2022-09-15T12:26:30.959Z,1.70
2022-09-15T12:29:04.167Z,1.42
2022-09-15T12:31:31.171Z,0.85
2022-09-15T12:34:19.657Z,0.73
2022-09-15T12:36:49.414Z,0.88
2022-09-15T12:39:25.553Z,0.60
2022-09-15T12:44:40.464Z,0.73
2022-09-15T12:47:46.804Z,0.40
2022-09-15T12:50:16.854Z,0.60
2022-09-15T12:53:12.873Z,0.65
2022-09-15T12:55:57.045Z,0.65
2022-09-15T12:58:35.284Z,0.40
2022-09-15T13:01:27.167Z,0.70
2022-09-15T13:04:00.530Z,0.63
2022-09-15T13:06:34.086Z,0.68
2022-09-15T13:09:05.829Z,0.70
2022-09-15T13:11:43.005Z,0.60
2022-09-15T13:14:19.105Z,0.70
2022-09-15T13:19:35.762Z,0.70
2022-09-15T13:22:11.230Z,0.50
2022-09-15T13:24:50.106Z,0.70
2022-09-15T13:27:21.126Z,0.60
2022-09-15T13:30:00.003Z,0.77
2022-09-15T13:32:53.538Z,0.60
2022-09-15T13:35:23.271Z,0.80
2022-09-15T13:38:16.795Z,0.63
2022-09-15T13:40:59.150Z,0.60
2022-09-15T13:44:01.372Z,0.60
2022-09-15T13:46:57.433Z,0.60
2022-09-15T13:49:24.140Z,0.65
2022-09-15T13:51:59.718Z,1.08
2022-09-15T13:54:26.536Z,0.90
2022-09-15T13:56:53.694Z,0.80
2022-09-15T13:59:27.707Z,0.82
2022-09-15T14:01:55.354Z,0.65
2022-09-15T14:04:29.098Z,0.70
2022-09-15T14:07:00.780Z,0.57
2022-09-15T14:09:31.152Z,0.85
2022-09-15T14:12:02.514Z,0.50
2022-09-15T14:14:29.431Z,0.68
2022-09-15T14:16:56.821Z,0.65
2022-09-15T14:19:30.594Z,0.70
2022-09-15T14:21:58.811Z,0.50
2022-09-15T14:24:29.644Z,0.63
2022-09-15T14:27:01.157Z,0.70
2022-09-15T14:29:28.216Z,0.50
2022-09-15T14:32:00.752Z,0.65
2022-09-15T14:34:31.378Z,0.70
2022-09-15T14:37:05.126Z,0.50
2022-09-15T14:39:33.588Z,0.60
2022-09-15T14:42:20.233Z,0.63
2022-09-15T14:47:35.812Z,0.43
2022-09-15T14:50:17.805Z,0.75
2022-09-15T14:52:52.060Z,0.68
2022-09-15T14:55:22.677Z,0.60
2022-09-15T14:57:54.357Z,0.60
2022-09-15T15:00:26.109Z,0.77
2022-09-15T15:03:01.946Z,0.70
2022-09-15T15:05:58.044Z,0.82
2022-09-15T15:08:42.398Z,0.80
2022-09-15T15:11:11.690Z,0.80
2022-09-15T15:13:42.658Z,0.88
2022-09-15T15:16:27.574Z,0.60
2022-09-15T15:18:57.063Z,0.80
2022-09-15T15:21:43.237Z,0.90
2022-09-15T15:24:18.682Z,0.88
2022-09-15T15:26:50.071Z,0.85
2022-09-15T15:29:39.517Z,0.80
2022-09-15T15:32:12.096Z,0.88
2022-09-15T15:34:39.569Z,1.00
2022-09-15T15:37:31.373Z,0.80
2022-09-15T15:40:02.046Z,0.82
2022-09-15T15:42:29.909Z,0.90
2022-09-15T15:45:09.330Z,0.80
2022-09-15T15:47:37.479Z,0.90
2022-09-15T15:50:26.171Z,0.80
2022-09-15T15:52:53.281Z,0.93
2022-09-15T15:55:26.724Z,0.82
2022-09-15T15:57:55.402Z,0.90
2022-09-15T16:00:31.852Z,0.80
2022-09-15T16:02:58.677Z,0.93
2022-09-15T16:05:27.997Z,1.00
2022-09-15T16:07:56.741Z,1.00
2022-09-15T16:10:28.003Z,0.82
2022-09-15T16:12:56.267Z,0.80
2022-09-15T16:15:23.286Z,0.80
2022-09-15T16:17:50.109Z,1.00
2022-09-15T16:20:17.286Z,0.90
2022-09-15T16:22:44.308Z,1.00
2022-09-15T16:25:35.075Z,0.70
2022-09-15T16:28:02.648Z,0.88
2022-09-15T16:30:30.275Z,0.93
2022-09-15T16:32:57.542Z,0.90
2022-09-15T16:35:33.445Z,0.82
2022-09-15T16:38:00.422Z,0.75
2022-09-15T16:40:28.352Z,1.05
2022-09-15T16:42:57.479Z,1.08
2022-09-15T16:45:39.736Z,0.95
2022-09-15T16:48:09.141Z,1.00
2022-09-15T16:50:37.773Z,1.10
2022-09-15T16:53:09.221Z,1.00
2022-09-15T16:55:47.672Z,1.25
2022-09-15T16:58:15.946Z,0.95
2022-09-15T17:00:44.199Z,0.98
2022-09-15T17:03:16.857Z,1.02
2022-09-15T17:05:50.452Z,0.90
2022-09-15T17:08:19.283Z,1.10
2022-09-15T17:10:47.414Z,1.35
2022-09-15T17:13:20.438Z,1.10
2022-09-15T17:15:48.729Z,0.90
2022-09-15T17:18:16.279Z,0.95
2022-09-15T17:20:44.593Z,0.88
2022-09-15T17:23:20.469Z,1.05
2022-09-15T17:25:53.578Z,0.80
2022-09-15T17:28:22.775Z,1.13
2022-09-15T17:30:57.551Z,1.10
2022-09-15T17:33:25.255Z,1.15
2022-09-15T17:35:52.736Z,1.08
2022-09-15T17:38:21.666Z,1.10
2022-09-15T17:40:49.969Z,1.00
2022-09-15T17:43:19.595Z,1.10
2022-09-15T17:45:47.803Z,1.10
2022-09-15T17:48:14.683Z,1.00
2022-09-15T17:50:42.090Z,1.20
2022-09-15T17:53:17.099Z,1.30
2022-09-15T17:55:44.584Z,1.13
2022-09-15T17:58:11.848Z,0.90
2022-09-15T18:00:40.709Z,0.90
2022-09-15T18:03:15.796Z,1.10
2022-09-15T18:05:42.789Z,0.93
2022-09-15T18:08:09.874Z,1.10
2022-09-15T18:10:37.195Z,1.40
2022-09-15T18:13:05.354Z,1.02
2022-09-15T18:15:34.979Z,0.80
2022-09-15T18:18:04.421Z,0.98
2022-09-15T18:20:32.948Z,1.00
2022-09-15T18:23:00.298Z,1.10
2022-09-15T18:25:33.558Z,1.00
2022-09-15T18:28:01.936Z,1.00
2022-09-15T18:30:32.119Z,1.02
2022-09-15T18:32:59.655Z,1.00
2022-09-15T18:35:27.143Z,1.00
2022-09-15T18:37:58.927Z,1.00
2022-09-15T18:40:27.714Z,0.90
2022-09-15T18:42:56.891Z,1.20
2022-09-15T18:45:23.871Z,1.10
2022-09-15T18:47:52.796Z,1.15
2022-09-15T18:50:25.459Z,0.90
2022-09-15T18:52:53.237Z,1.10
2022-09-15T18:55:22.113Z,1.00
2022-09-15T18:57:49.500Z,1.10
2022-09-15T19:00:28.635Z,1.42
2022-09-15T19:02:59.972Z,0.98
2022-09-15T19:05:28.438Z,1.10
2022-09-15T19:07:55.661Z,1.20
2022-09-15T19:10:23.659Z,1.02
2022-09-15T19:12:50.806Z,1.33
2022-09-15T19:15:17.782Z,1.05
2022-09-15T19:17:44.767Z,1.10
2022-09-15T19:20:14.976Z,1.00
2022-09-15T19:22:42.348Z,1.30
2022-09-15T19:25:11.005Z,1.05
2022-09-15T19:27:38.855Z,1.40
2022-09-15T19:30:07.275Z,1.08
2022-09-15T19:32:34.126Z,1.10
2022-09-15T19:35:00.933Z,1.00
2022-09-15T19:37:27.740Z,1.05
2022-09-15T19:39:54.810Z,1.20
2022-09-15T19:42:21.765Z,1.00
2022-09-15T19:44:49.529Z,1.17
2022-09-15T19:47:16.661Z,1.30
2022-09-15T19:49:43.480Z,1.13
2022-09-15T19:52:10.581Z,1.10
2022-09-15T19:54:37.355Z,1.30
2022-09-15T19:57:04.326Z,1.00
2022-09-15T19:59:32.108Z,1.38
2022-09-15T20:02:00.549Z,1.38
2022-09-15T20:04:28.407Z,1.35
2022-09-15T20:06:55.231Z,1.10
2022-09-15T20:09:22.306Z,1.10
2022-09-15T20:11:49.139Z,1.27
2022-09-15T20:14:16.067Z,1.30
2022-09-15T20:16:43.158Z,1.40
2022-09-15T20:19:10.201Z,1.30
2022-09-15T20:21:54.020Z,1.27
2022-09-15T20:24:21.417Z,1.00
2022-09-15T20:26:48.519Z,0.98
2022-09-15T20:29:15.944Z,1.30
2022-09-15T20:31:43.545Z,1.33
2022-09-15T20:34:10.336Z,1.30
2022-09-15T20:36:38.992Z,1.23
2022-09-15T20:39:10.313Z,1.38
2022-09-15T20:41:37.495Z,1.02
2022-09-15T20:44:06.002Z,1.05
2022-09-15T20:46:33.528Z,1.23
2022-09-15T20:49:01.408Z,1.10
2022-09-15T20:51:31.605Z,1.58
2022-09-15T20:53:59.833Z,1.25
2022-09-15T20:56:28.529Z,1.30
2022-09-15T20:58:57.712Z,1.10
2022-09-15T21:01:29.779Z,1.50
2022-09-15T21:03:56.683Z,1.40
2022-09-15T21:06:26.099Z,1.08
2022-09-15T21:08:54.759Z,1.00
2022-09-15T21:11:23.336Z,0.90
2022-09-15T21:13:50.885Z,1.10
2022-09-15T21:16:20.702Z,1.00
2022-09-15T21:18:49.189Z,1.17
2022-09-15T21:21:22.398Z,1.00
2022-09-15T21:23:58.591Z,1.15
2022-09-15T21:26:27.858Z,1.20
2022-09-15T21:28:56.001Z,1.27
2022-09-15T21:31:31.298Z,1.30
2022-09-15T21:33:59.160Z,1.07
2022-09-15T21:36:31.194Z,1.42
2022-09-15T21:38:59.465Z,1.30
2022-09-15T21:41:29.897Z,1.30
2022-09-15T21:43:58.924Z,1.20
2022-09-15T21:46:29.348Z,1.20
2022-09-15T21:48:57.623Z,1.40
2022-09-15T21:51:25.897Z,1.40
2022-09-15T21:53:54.377Z,1.50
2022-09-15T21:56:22.160Z,1.30
2022-09-15T21:58:49.288Z,1.50
2022-09-15T22:01:28.101Z,1.63
2022-09-15T22:04:00.905Z,1.40
2022-09-15T22:06:35.823Z,1.73
2022-09-15T22:09:06.840Z,1.60
2022-09-15T22:11:33.871Z,1.92
2022-09-15T22:14:03.896Z,1.80
2022-09-15T22:16:30.869Z,1.90
2022-09-15T22:18:57.725Z,2.00
2022-09-15T22:21:27.085Z,1.88
2022-09-15T22:23:56.563Z,2.30
2022-09-15T22:26:28.893Z,2.10
2022-09-15T22:28:58.094Z,1.90
2022-09-15T22:31:25.593Z,2.03
2022-09-15T22:33:53.026Z,1.90
2022-09-15T22:36:29.186Z,1.75
2022-09-15T22:39:04.013Z,2.10
2022-09-15T22:41:34.210Z,1.80
2022-09-15T22:44:01.088Z,1.90
2022-09-15T22:46:28.117Z,2.00
2022-09-15T22:48:55.137Z,1.55
2022-09-15T22:51:21.958Z,1.40
2022-09-15T22:53:48.747Z,1.58
2022-09-15T22:56:20.186Z,1.65
2022-09-15T22:58:48.705Z,1.58
2022-09-15T23:01:18.170Z,1.38
2022-09-15T23:03:48.952Z,1.60
2022-09-15T23:06:15.786Z,1.48
2022-09-15T23:08:42.614Z,1.60
2022-09-15T23:11:13.957Z,1.33
2022-09-15T23:13:41.782Z,1.27
2022-09-15T23:16:09.276Z,1.60
2022-09-15T23:18:36.648Z,1.40
2022-09-15T23:21:07.368Z,1.20
2022-09-15T23:23:36.093Z,1.55
2022-09-15T23:26:04.461Z,1.50
2022-09-15T23:28:32.034Z,1.50
2022-09-15T23:30:59.523Z,1.38
2022-09-15T23:33:28.151Z,1.60
2022-09-15T23:35:55.364Z,1.40
2022-09-15T23:38:22.417Z,1.30
2022-09-15T23:40:50.563Z,1.90
2022-09-15T23:43:17.843Z,1.77
2022-09-15T23:45:45.979Z,2.00
2022-09-15T23:48:14.112Z,1.73
2022-09-15T23:50:41.480Z,1.58
2022-09-15T23:53:09.151Z,1.80
2022-09-15T23:55:36.643Z,1.60
2022-09-15T23:58:04.743Z,1.65
